Salta — A8WC6 — position and weather

sailwx.info

Track history (hours):
 
Tides and Currents Weather Stations Pressure Air Temp Water Temp Dewpoint Dewpoint Depression Visibility Wind Speed Wind Dir Waves Ship Positions

Salta

Last reported at 2017-Oct-05 01:52 UTC. Time now 2017-Nov-18 02:45 UTC.
Position N 36°16' E 014°55'.
Warning: this ship's position is 44 days out of date.

Length 196 m; draft 13.7 m.

Type: Ship. MMSI: 636092067.

Date/timePositionNaut miles runAvg speedWind from/ knotsBaromVisibWave heightAir tempDewpointWater temp
2017-Oct-05 01:52N 36°16' E 014°55'410.7
2017-Oct-05 01:29N 36°17' E 014°50'510.6
2017-Oct-05 01:00N 36°18' E 014°44'510.4
2017-Oct-05 00:30N 36°19' E 014°37'510.3
2017-Oct-05 00:00N 36°21' E 014°31'510.3
2017-Oct-04 23:30N 36°23' E 014°25'510.3
2017-Oct-04 23:00N 36°25' E 014°19'510.4
2017-Oct-04 22:30N 36°26' E 014°13'510.4
2017-Oct-04 22:00N 36°28' E 014°07'510.4
2017-Oct-04 21:30N 36°29' E 014°01'510.2
2017-Oct-04 21:00N 36°31' E 013°55'510.0
2017-Oct-04 20:29N 36°33' E 013°49'  
2017-Oct-01 09:30N 36°02' W 005°00'612.2
2017-Oct-01 09:00N 36°01' W 005°08'612.1
2017-Oct-01 08:30N 36°00' W 005°15'611.9
2017-Oct-01 08:00N 35°59' W 005°22'611.4
2017-Oct-01 07:30N 35°57' W 005°29'610.8
2017-Oct-01 06:59N 35°55' W 005°36'510.4
2017-Oct-01 06:30N 35°54' W 005°42'510.1
2017-Oct-01 05:59N 35°54' W 005°48'510.2
2017-Oct-01 05:30N 35°54' W 005°54'510.5
2017-Oct-01 05:00N 35°54' W 006°01'262 9.7
2017-Sep-30 02:01N 38°48' W 010°07'612.0
2017-Sep-30 01:31N 38°54' W 010°07'612.0
2017-Sep-30 01:00N 39°00' W 010°07'611.8
2017-Sep-30 00:31N 39°06' W 010°07'611.6
2017-Sep-30 00:01N 39°12' W 010°07'611.5
2017-Sep-29 23:31N 39°18' W 010°07'611.5
2017-Sep-29 23:00N 39°23' W 010°07'611.7
2017-Sep-29 22:31N 39°29' W 010°07'611.8
2017-Sep-29 22:01N 39°35' W 010°07'611.7
2017-Sep-29 21:27N 39°42' W 010°06'611.5
2017-Sep-29 20:57N 39°47' W 010°07'511.8
2017-Sep-29 20:30N 39°53' W 010°07'  
2017-Sep-27 10:11N 49°34' W 004°15'310.7
2017-Sep-27 09:57N 49°35' W 004°11'510.8
2017-Sep-27 09:29N 49°37' W 004°04'510.7
2017-Sep-27 09:00N 49°39' W 003°57'510.5
2017-Sep-27 08:30N 49°42' W 003°50'510.3
2017-Sep-27 08:00N 49°45' W 003°43'510.6
2017-Sep-27 07:30N 49°48' W 003°37'510.9
2017-Sep-27 07:01N 49°51' W 003°30'611.5
2017-Sep-27 06:30N 49°53' W 003°22'611.9
2017-Sep-27 06:00N 49°55' W 003°13'612.3
2017-Sep-27 05:30N 49°58' W 003°04'612.7
2017-Sep-27 05:00N 50°00' W 002°55'612.8
2017-Sep-27 04:30N 50°02' W 002°46'612.6
2017-Sep-27 04:01N 50°04' W 002°36'612.4
2017-Sep-27 03:30N 50°05' W 002°27'612.0
2017-Sep-27 03:00N 50°07' W 002°18'611.5
2017-Sep-27 02:30N 50°08' W 002°09'511.0
2017-Sep-27 02:00N 50°09' W 002°01'510.4
2017-Sep-27 01:30N 50°11' W 001°53'5 9.9
2017-Sep-27 01:00N 50°12' W 001°46'14 9.3
2017-Sep-26 23:29N 50°16' W 001°24'5 9.2
2017-Sep-26 22:58N 50°17' W 001°17'6 9.5
2017-Sep-26 22:19N 50°19' W 001°08'410.1
2017-Sep-26 21:55N 50°20' W 001°02'410.8
2017-Sep-26 21:30N 50°21' W 000°55'611.6
2017-Sep-26 21:00N 50°23' W 000°46'612.0
2017-Sep-26 20:30N 50°24' W 000°37'612.4
2017-Sep-26 20:00N 50°26' W 000°28'612.7
2017-Sep-26 19:30N 50°28' W 000°18'612.9
2017-Sep-26 19:00N 50°30' W 000°09'612.9
2017-Sep-26 18:30N 50°32' E 000°01'612.8
2017-Sep-26 18:00N 50°34' E 000°11'612.7
2017-Sep-26 17:30N 50°35' E 000°20'612.5
2017-Sep-26 17:00N 50°37' E 000°30'611.9
2017-Sep-26 16:30N 50°40' E 000°38'611.7
2017-Sep-26 16:00N 50°43' E 000°46'611.2
2017-Sep-26 15:30N 50°46' E 000°53'510.7
2017-Sep-26 15:00N 50°49' E 000°60'610.5
2017-Sep-26 14:29N 50°53' E 001°06'510.5
2017-Sep-26 14:01N 50°56' E 001°12'510.6
2017-Sep-26 13:30N 50°60' E 001°19'611.2
2017-Sep-26 13:00N 51°04' E 001°25'612.8
2017-Sep-26 12:30N 51°07' E 001°33'713.6
2017-Sep-26 12:01N 51°12' E 001°42'713.6
2017-Sep-26 11:30N 51°17' E 001°49'713.7
2017-Sep-26 11:00N 51°22' E 001°56'510.4
2017-Sep-26 10:30N 51°24' E 002°04'612.0
2017-Sep-26 10:00N 51°21' E 002°13'612.0
2017-Sep-26 09:31N 51°21' E 002°22'612.4
2017-Sep-26 09:00N 51°22' E 002°32'612.2
2017-Sep-26 08:30N 51°23' E 002°42'611.3
2017-Sep-26 08:00N 51°25' E 002°50'612.4
2017-Sep-26 07:30N 51°25' E 002°60'612.2
2017-Sep-26 07:00N 51°24' E 003°09'612.1
2017-Sep-26 06:30N 51°24' E 003°19'611.9
2017-Sep-26 06:00N 51°25' E 003°29'510.5
2017-Sep-26 05:30N 51°26' E 003°37'4 8.7
2017-Sep-26 05:00N 51°24' E 003°43'5 9.9
2017-Sep-26 04:31N 51°21' E 003°49'4 8.7
2017-Sep-26 04:00N 51°22' E 003°56'4 8.4
2017-Sep-26 03:30N 51°26' E 003°59'4 7.6
2017-Sep-26 03:00N 51°23' E 004°02'4 8.9
2017-Sep-26 02:30N 51°23' E 004°10'3 6.4
2017-Sep-26 02:00N 51°21' E 004°14'3 6.1
2017-Sep-26 01:30N 51°19' E 004°16'2 4.2
2017-Sep-26 01:00N 51°17' E 004°15'0 0.3
2017-Sep-26 00:25N 51°17' E 004°15'0 0.0
2017-Sep-25 23:57N 51°17' E 004°15'1 2.1
2017-Sep-25 23:30N 51°16' E 004°14'1 1.1
2017-Sep-25 23:00N 51°15' E 004°14'0 0.0
2017-Sep-25 22:30N 51°15' E 004°14'0 0.0
2017-Sep-25 22:00N 51°15' E 004°14'0 0.0
2017-Sep-25 21:29N 51°15' E 004°14'0 0.0
2017-Sep-25 20:59N 51°15' E 004°14'0 0.0
2017-Sep-25 20:29N 51°15' E 004°14'0 0.0
2017-Sep-25 19:59N 51°15' E 004°14'0 0.0
2017-Sep-25 19:28N 51°15' E 004°14'0 0.0
2017-Sep-25 18:55N 51°15' E 004°14'0 0.0
2017-Sep-25 18:28N 51°15' E 004°14'0 0.0
2017-Sep-25 17:58N 51°15' E 004°14'0 0.0
2017-Sep-25 17:28N 51°15' E 004°14'0 0.0
2017-Sep-25 17:00N 51°15' E 004°14'0 0.0
2017-Sep-25 16:27N 51°15' E 004°14'0 0.0
2017-Sep-25 16:00N 51°15' E 004°14'0 0.0
2017-Sep-25 15:30N 51°15' E 004°14'0 0.0
2017-Sep-25 14:59N 51°15' E 004°14'0 0.0
2017-Sep-25 14:29N 51°15' E 004°14'0 0.0
2017-Sep-25 13:59N 51°15' E 004°14'0 0.0
2017-Sep-25 13:29N 51°15' E 004°14'0 0.0
2017-Sep-25 12:59N 51°15' E 004°14'0 0.0
2017-Sep-25 12:28N 51°15' E 004°14'0 0.0
2017-Sep-25 11:58N 51°15' E 004°14'0 0.0
2017-Sep-25 11:28N 51°15' E 004°14'0 0.0
2017-Sep-25 10:58N 51°15' E 004°14'0 0.0
2017-Sep-25 10:31N 51°15' E 004°14'0 0.0
2017-Sep-25 10:00N 51°15' E 004°14'0 0.0
2017-Sep-25 09:30N 51°15' E 004°14'0 0.0
2017-Sep-25 09:00N 51°15' E 004°14'0 0.0
2017-Sep-25 08:30N 51°15' E 004°14'0 0.0
2017-Sep-25 07:59N 51°15' E 004°14'0 0.0
2017-Sep-25 07:29N 51°15' E 004°14'0 0.0
2017-Sep-25 06:59N 51°15' E 004°14'0 0.0
2017-Sep-25 06:29N 51°15' E 004°14'0 0.0
2017-Sep-25 05:59N 51°15' E 004°14'0 0.0
2017-Sep-25 05:28N 51°15' E 004°14'0 0.0
2017-Sep-25 04:58N 51°15' E 004°14'0 0.0
2017-Sep-25 04:28N 51°15' E 004°14'0 0.0
2017-Sep-25 03:58N 51°15' E 004°14'0 0.0
2017-Sep-25 03:31N 51°15' E 004°14'0 0.0
2017-Sep-25 03:00N 51°15' E 004°14'0 0.0
2017-Sep-25 02:30N 51°15' E 004°14'0 0.0
2017-Sep-25 02:00N 51°15' E 004°14'  
Track history (hours):
 
Tides and Currents Weather Stations Pressure Air Temp Water Temp Dewpoint Dewpoint Depression Visibility Wind Speed Wind Dir Waves Ship Positions

Salta

Last reported at 2017-Oct-05 01:52 UTC. Time now 2017-Nov-18 02:45 UTC.
Position N 36°16' E 014°55'.
Warning: this ship's position is 44 days out of date.

Length 196 m; draft 13.7 m.

Type: Ship. MMSI: 636092067.

Date/timePositionNaut miles runAvg speedWind from/ knotsBaromVisibWave heightAir tempDewpointWater temp
2017-Oct-05 01:52N 36°16' E 014°55'410.7
2017-Oct-05 01:29N 36°17' E 014°50'510.6
2017-Oct-05 01:00N 36°18' E 014°44'510.4
2017-Oct-05 00:30N 36°19' E 014°37'510.3
2017-Oct-05 00:00N 36°21' E 014°31'510.3
2017-Oct-04 23:30N 36°23' E 014°25'510.3
2017-Oct-04 23:00N 36°25' E 014°19'510.4
2017-Oct-04 22:30N 36°26' E 014°13'510.4
2017-Oct-04 22:00N 36°28' E 014°07'510.4
2017-Oct-04 21:30N 36°29' E 014°01'510.2
2017-Oct-04 21:00N 36°31' E 013°55'510.0
2017-Oct-04 20:29N 36°33' E 013°49'  
2017-Oct-01 09:30N 36°02' W 005°00'612.2
2017-Oct-01 09:00N 36°01' W 005°08'612.1
2017-Oct-01 08:30N 36°00' W 005°15'611.9
2017-Oct-01 08:00N 35°59' W 005°22'611.4
2017-Oct-01 07:30N 35°57' W 005°29'610.8
2017-Oct-01 06:59N 35°55' W 005°36'510.4
2017-Oct-01 06:30N 35°54' W 005°42'510.1
2017-Oct-01 05:59N 35°54' W 005°48'510.2
2017-Oct-01 05:30N 35°54' W 005°54'510.5
2017-Oct-01 05:00N 35°54' W 006°01'262 9.7
2017-Sep-30 02:01N 38°48' W 010°07'612.0
2017-Sep-30 01:31N 38°54' W 010°07'612.0
2017-Sep-30 01:00N 39°00' W 010°07'611.8
2017-Sep-30 00:31N 39°06' W 010°07'611.6
2017-Sep-30 00:01N 39°12' W 010°07'611.5
2017-Sep-29 23:31N 39°18' W 010°07'611.5
2017-Sep-29 23:00N 39°23' W 010°07'611.7
2017-Sep-29 22:31N 39°29' W 010°07'611.8
2017-Sep-29 22:01N 39°35' W 010°07'611.7
2017-Sep-29 21:27N 39°42' W 010°06'611.5
2017-Sep-29 20:57N 39°47' W 010°07'511.8
2017-Sep-29 20:30N 39°53' W 010°07'  
2017-Sep-27 10:11N 49°34' W 004°15'310.7
2017-Sep-27 09:57N 49°35' W 004°11'510.8
2017-Sep-27 09:29N 49°37' W 004°04'510.7
2017-Sep-27 09:00N 49°39' W 003°57'510.5
2017-Sep-27 08:30N 49°42' W 003°50'510.3
2017-Sep-27 08:00N 49°45' W 003°43'510.6
2017-Sep-27 07:30N 49°48' W 003°37'510.9
2017-Sep-27 07:01N 49°51' W 003°30'611.5
2017-Sep-27 06:30N 49°53' W 003°22'611.9
2017-Sep-27 06:00N 49°55' W 003°13'612.3
2017-Sep-27 05:30N 49°58' W 003°04'612.7
2017-Sep-27 05:00N 50°00' W 002°55'612.8
2017-Sep-27 04:30N 50°02' W 002°46'612.6
2017-Sep-27 04:01N 50°04' W 002°36'612.4
2017-Sep-27 03:30N 50°05' W 002°27'612.0
2017-Sep-27 03:00N 50°07' W 002°18'611.5
2017-Sep-27 02:30N 50°08' W 002°09'511.0
2017-Sep-27 02:00N 50°09' W 002°01'510.4
2017-Sep-27 01:30N 50°11' W 001°53'5 9.9
2017-Sep-27 01:00N 50°12' W 001°46'14 9.3
2017-Sep-26 23:29N 50°16' W 001°24'5 9.2
2017-Sep-26 22:58N 50°17' W 001°17'6 9.5
2017-Sep-26 22:19N 50°19' W 001°08'410.1
2017-Sep-26 21:55N 50°20' W 001°02'410.8
2017-Sep-26 21:30N 50°21' W 000°55'611.6
2017-Sep-26 21:00N 50°23' W 000°46'612.0
2017-Sep-26 20:30N 50°24' W 000°37'612.4
2017-Sep-26 20:00N 50°26' W 000°28'612.7
2017-Sep-26 19:30N 50°28' W 000°18'612.9
2017-Sep-26 19:00N 50°30' W 000°09'612.9
2017-Sep-26 18:30N 50°32' E 000°01'612.8
2017-Sep-26 18:00N 50°34' E 000°11'612.7
2017-Sep-26 17:30N 50°35' E 000°20'612.5
2017-Sep-26 17:00N 50°37' E 000°30'611.9
2017-Sep-26 16:30N 50°40' E 000°38'611.7
2017-Sep-26 16:00N 50°43' E 000°46'611.2
2017-Sep-26 15:30N 50°46' E 000°53'510.7
2017-Sep-26 15:00N 50°49' E 000°60'610.5
2017-Sep-26 14:29N 50°53' E 001°06'510.5
2017-Sep-26 14:01N 50°56' E 001°12'510.6
2017-Sep-26 13:30N 50°60' E 001°19'611.2
2017-Sep-26 13:00N 51°04' E 001°25'612.8
2017-Sep-26 12:30N 51°07' E 001°33'713.6
2017-Sep-26 12:01N 51°12' E 001°42'713.6
2017-Sep-26 11:30N 51°17' E 001°49'713.7
2017-Sep-26 11:00N 51°22' E 001°56'510.4
2017-Sep-26 10:30N 51°24' E 002°04'612.0
2017-Sep-26 10:00N 51°21' E 002°13'612.0
2017-Sep-26 09:31N 51°21' E 002°22'612.4
2017-Sep-26 09:00N 51°22' E 002°32'612.2
2017-Sep-26 08:30N 51°23' E 002°42'611.3
2017-Sep-26 08:00N 51°25' E 002°50'612.4
2017-Sep-26 07:30N 51°25' E 002°60'612.2
2017-Sep-26 07:00N 51°24' E 003°09'612.1
2017-Sep-26 06:30N 51°24' E 003°19'611.9
2017-Sep-26 06:00N 51°25' E 003°29'510.5
2017-Sep-26 05:30N 51°26' E 003°37'4 8.7
2017-Sep-26 05:00N 51°24' E 003°43'5 9.9
2017-Sep-26 04:31N 51°21' E 003°49'4 8.7
2017-Sep-26 04:00N 51°22' E 003°56'4 8.4
2017-Sep-26 03:30N 51°26' E 003°59'4 7.6
2017-Sep-26 03:00N 51°23' E 004°02'4 8.9
2017-Sep-26 02:30N 51°23' E 004°10'3 6.4
2017-Sep-26 02:00N 51°21' E 004°14'3 6.1
2017-Sep-26 01:30N 51°19' E 004°16'2 4.2
2017-Sep-26 01:00N 51°17' E 004°15'0 0.3
2017-Sep-26 00:25N 51°17' E 004°15'0 0.0
2017-Sep-25 23:57N 51°17' E 004°15'1 2.1
2017-Sep-25 23:30N 51°16' E 004°14'1 1.1
2017-Sep-25 23:00N 51°15' E 004°14'0 0.0
2017-Sep-25 22:30N 51°15' E 004°14'0 0.0
2017-Sep-25 22:00N 51°15' E 004°14'0 0.0
2017-Sep-25 21:29N 51°15' E 004°14'0 0.0
2017-Sep-25 20:59N 51°15' E 004°14'0 0.0
2017-Sep-25 20:29N 51°15' E 004°14'0 0.0
2017-Sep-25 19:59N 51°15' E 004°14'0 0.0
2017-Sep-25 19:28N 51°15' E 004°14'0 0.0
2017-Sep-25 18:55N 51°15' E 004°14'0 0.0
2017-Sep-25 18:28N 51°15' E 004°14'0 0.0
2017-Sep-25 17:58N 51°15' E 004°14'0 0.0
2017-Sep-25 17:28N 51°15' E 004°14'0 0.0
2017-Sep-25 17:00N 51°15' E 004°14'0 0.0
2017-Sep-25 16:27N 51°15' E 004°14'0 0.0
2017-Sep-25 16:00N 51°15' E 004°14'0 0.0
2017-Sep-25 15:30N 51°15' E 004°14'0 0.0
2017-Sep-25 14:59N 51°15' E 004°14'0 0.0
2017-Sep-25 14:29N 51°15' E 004°14'0 0.0
2017-Sep-25 13:59N 51°15' E 004°14'0 0.0
2017-Sep-25 13:29N 51°15' E 004°14'0 0.0
2017-Sep-25 12:59N 51°15' E 004°14'0 0.0
2017-Sep-25 12:28N 51°15' E 004°14'0 0.0
2017-Sep-25 11:58N 51°15' E 004°14'0 0.0
2017-Sep-25 11:28N 51°15' E 004°14'0 0.0
2017-Sep-25 10:58N 51°15' E 004°14'0 0.0
2017-Sep-25 10:31N 51°15' E 004°14'0 0.0
2017-Sep-25 10:00N 51°15' E 004°14'0 0.0
2017-Sep-25 09:30N 51°15' E 004°14'0 0.0
2017-Sep-25 09:00N 51°15' E 004°14'0 0.0
2017-Sep-25 08:30N 51°15' E 004°14'0 0.0
2017-Sep-25 07:59N 51°15' E 004°14'0 0.0
2017-Sep-25 07:29N 51°15' E 004°14'0 0.0
2017-Sep-25 06:59N 51°15' E 004°14'0 0.0
2017-Sep-25 06:29N 51°15' E 004°14'0 0.0
2017-Sep-25 05:59N 51°15' E 004°14'0 0.0
2017-Sep-25 05:28N 51°15' E 004°14'0 0.0
2017-Sep-25 04:58N 51°15' E 004°14'0 0.0
2017-Sep-25 04:28N 51°15' E 004°14'0 0.0
2017-Sep-25 03:58N 51°15' E 004°14'0 0.0
2017-Sep-25 03:31N 51°15' E 004°14'0 0.0
2017-Sep-25 03:00N 51°15' E 004°14'0 0.0
2017-Sep-25 02:30N 51°15' E 004°14'0 0.0
2017-Sep-25 02:00N 51°15' E 004°14'  

Dump ship's entire track history